createdAt,value
2023-03-17T00:01:56.001Z,2.05
2023-03-17T00:04:25.087Z,1.73
2023-03-17T00:06:52.959Z,2.30
2023-03-17T00:09:20.638Z,1.87
2023-03-17T00:11:47.887Z,1.98
2023-03-17T00:14:14.669Z,1.90
2023-03-17T00:16:44.453Z,5.10
2023-03-17T00:19:21.869Z,4.68
2023-03-17T00:21:49.529Z,2.53
2023-03-17T00:24:16.372Z,2.40
2023-03-17T00:26:43.776Z,1.80
2023-03-17T00:29:10.650Z,1.70
2023-03-17T00:31:39.215Z,1.73
2023-03-17T00:34:08.033Z,2.00
2023-03-17T00:36:35.593Z,1.83
2023-03-17T00:39:02.234Z,1.98
2023-03-17T00:41:29.578Z,2.13
2023-03-17T00:43:57.535Z,1.75
2023-03-17T00:46:28.907Z,2.00
2023-03-17T00:48:55.683Z,1.30
2023-03-17T00:51:23.407Z,1.75
2023-03-17T00:53:50.914Z,1.65
2023-03-17T00:56:20.689Z,1.90
2023-03-17T00:58:48.515Z,1.80
2023-03-17T01:01:15.987Z,1.88
2023-03-17T01:03:42.699Z,1.67
2023-03-17T01:06:12.529Z,1.80
2023-03-17T01:08:40.954Z,1.70
2023-03-17T01:11:14.778Z,1.30
2023-03-17T01:13:41.944Z,1.50
2023-03-17T01:19:05.847Z,1.45
2023-03-17T01:21:32.670Z,1.30
2023-03-17T01:24:00.522Z,1.20
2023-03-17T01:26:27.426Z,1.73
2023-03-17T01:28:54.924Z,1.35
2023-03-17T01:31:23.110Z,1.85
2023-03-17T01:33:49.876Z,1.45
2023-03-17T01:36:17.852Z,1.20
2023-03-17T01:38:48.271Z,1.38
2023-03-17T01:41:14.924Z,1.85
2023-03-17T01:43:41.719Z,1.85
2023-03-17T01:46:17.184Z,1.95
2023-03-17T01:48:55.835Z,1.47
2023-03-17T01:51:32.127Z,1.65
2023-03-17T01:54:01.560Z,2.42
2023-03-17T01:56:29.018Z,2.72
2023-03-17T01:58:58.316Z,3.05
2023-03-17T02:01:30.742Z,1.57
2023-03-17T02:03:58.588Z,3.40
2023-03-17T02:06:26.367Z,1.65
2023-03-17T02:08:53.817Z,1.75
2023-03-17T02:11:21.222Z,1.40
2023-03-17T02:13:48.098Z,1.37
2023-03-17T02:16:16.428Z,0.93
2023-03-17T02:18:44.093Z,1.48
2023-03-17T02:21:31.906Z,1.20
2023-03-17T02:24:02.496Z,1.10
2023-03-17T02:26:33.172Z,1.53
2023-03-17T02:28:59.753Z,1.20
2023-03-17T02:31:27.488Z,1.00
2023-03-17T02:33:54.695Z,1.13
2023-03-17T02:36:22.068Z,1.00
2023-03-17T02:38:49.171Z,1.70
2023-03-17T02:41:15.874Z,1.38
2023-03-17T02:43:42.960Z,1.80
2023-03-17T02:46:09.840Z,1.30
2023-03-17T02:48:37.499Z,1.30
2023-03-17T02:51:04.922Z,2.37
2023-03-17T02:53:31.588Z,1.65
2023-03-17T02:55:58.503Z,2.40
2023-03-17T02:58:25.187Z,1.15
2023-03-17T03:00:51.841Z,3.08
2023-03-17T03:03:18.510Z,2.57
2023-03-17T03:05:45.576Z,3.10
2023-03-17T03:08:12.292Z,2.70
2023-03-17T03:13:33.352Z,2.97
2023-03-17T03:16:00.546Z,2.20
2023-03-17T03:18:27.340Z,5.50
2023-03-17T03:23:47.960Z,1.40
2023-03-17T03:26:14.701Z,1.50
2023-03-17T03:28:41.708Z,1.63
2023-03-17T03:31:08.740Z,1.15
2023-03-17T03:33:35.671Z,1.67
2023-03-17T03:36:02.548Z,1.88
2023-03-17T03:38:29.423Z,2.30
2023-03-17T03:40:56.146Z,2.37
2023-03-17T03:43:24.066Z,1.92
2023-03-17T03:45:51.926Z,1.50
2023-03-17T03:48:19.131Z,2.15
2023-03-17T03:50:50.820Z,1.58
2023-03-17T03:53:17.635Z,4.07
2023-03-17T03:55:44.176Z,1.77
2023-03-17T03:58:11.405Z,1.90
2023-03-17T04:00:38.004Z,3.38
2023-03-17T04:03:04.655Z,1.73
2023-03-17T04:05:31.242Z,1.70
2023-03-17T04:07:57.673Z,1.80
2023-03-17T04:10:24.204Z,1.00
2023-03-17T04:12:51.220Z,2.30
2023-03-17T04:15:19.880Z,1.58
2023-03-17T04:17:47.556Z,1.97
2023-03-17T04:20:16.011Z,1.95
2023-03-17T04:22:43.056Z,3.40
2023-03-17T04:25:11.580Z,3.22
2023-03-17T04:27:38.303Z,2.47
2023-03-17T04:30:05.852Z,1.20
2023-03-17T04:32:32.508Z,1.80
2023-03-17T04:34:59.192Z,1.58
2023-03-17T04:37:26.443Z,1.58
2023-03-17T04:39:53.411Z,1.40
2023-03-17T04:42:19.982Z,1.77
2023-03-17T04:44:47.114Z,2.13
2023-03-17T04:47:13.708Z,1.67
2023-03-17T04:49:40.501Z,2.55
2023-03-17T04:52:07.527Z,3.20
2023-03-17T04:54:34.184Z,2.13
2023-03-17T04:57:00.750Z,1.67
2023-03-17T04:59:27.346Z,2.28
2023-03-17T05:01:54.121Z,1.60
2023-03-17T05:04:31.259Z,1.60
2023-03-17T05:06:58.482Z,1.60
2023-03-17T05:09:26.711Z,2.30
2023-03-17T05:11:53.236Z,2.85
2023-03-17T05:14:20.198Z,1.20
2023-03-17T05:16:48.439Z,1.95
2023-03-17T05:19:15.423Z,2.30
2023-03-17T05:21:42.688Z,2.10
2023-03-17T05:24:09.578Z,1.80
2023-03-17T05:26:36.424Z,1.02
2023-03-17T05:29:03.024Z,1.48
2023-03-17T05:31:31.217Z,2.03
2023-03-17T05:33:58.825Z,1.50
2023-03-17T05:36:25.343Z,1.33
2023-03-17T05:38:52.331Z,3.92
2023-03-17T05:41:19.090Z,1.80
2023-03-17T05:43:46.143Z,1.30
2023-03-17T05:46:13.125Z,1.27
2023-03-17T05:48:39.619Z,1.63
2023-03-17T05:51:06.383Z,1.40
2023-03-17T05:53:33.111Z,0.98
2023-03-17T05:55:59.609Z,0.83
2023-03-17T05:58:26.702Z,1.30
2023-03-17T06:00:53.666Z,1.45
2023-03-17T06:03:21.481Z,1.20
2023-03-17T06:05:48.450Z,1.38
2023-03-17T06:08:15.296Z,1.10
2023-03-17T06:10:43.135Z,1.30
2023-03-17T06:13:09.771Z,1.65
2023-03-17T06:15:36.936Z,1.58
2023-03-17T06:18:05.211Z,2.17
2023-03-17T06:20:38.133Z,2.00
2023-03-17T06:23:06.020Z,1.50
2023-03-17T06:25:35.577Z,1.48
2023-03-17T06:28:04.029Z,1.90
2023-03-17T06:30:33.181Z,1.80
2023-03-17T06:33:00.515Z,1.63
2023-03-17T06:35:27.587Z,1.88
2023-03-17T06:37:54.789Z,1.77
2023-03-17T06:40:21.434Z,2.97
2023-03-17T06:42:48.526Z,1.48
2023-03-17T06:45:16.069Z,3.17
2023-03-17T06:47:42.797Z,2.65
2023-03-17T06:50:11.564Z,1.77
2023-03-17T06:52:39.730Z,1.98
2023-03-17T06:55:07.810Z,1.70
2023-03-17T06:57:35.152Z,2.27
2023-03-17T07:00:01.935Z,2.00
2023-03-17T07:02:28.738Z,1.20
2023-03-17T07:04:57.963Z,1.70
2023-03-17T07:07:25.189Z,1.58
2023-03-17T07:09:52.792Z,1.63
2023-03-17T07:12:20.152Z,1.17
2023-03-17T07:14:46.869Z,2.33
2023-03-17T07:17:14.703Z,2.40
2023-03-17T07:19:42.372Z,1.80
2023-03-17T07:22:12.158Z,2.63
2023-03-17T07:24:39.788Z,2.65
2023-03-17T07:27:06.379Z,3.92
2023-03-17T07:29:34.090Z,1.40
2023-03-17T07:32:01.485Z,1.67
2023-03-17T07:34:28.416Z,1.70
2023-03-17T07:36:55.355Z,1.23
2023-03-17T07:39:22.000Z,1.65
2023-03-17T07:41:52.976Z,1.00
2023-03-17T07:44:19.810Z,1.48
2023-03-17T07:46:46.922Z,1.70
2023-03-17T07:49:14.057Z,1.50
2023-03-17T07:51:43.324Z,1.25
2023-03-17T07:54:14.819Z,2.20
2023-03-17T07:56:42.509Z,1.90
2023-03-17T07:59:11.067Z,1.40
2023-03-17T08:01:38.418Z,1.10
2023-03-17T08:04:05.919Z,1.10
2023-03-17T08:06:32.667Z,1.50
2023-03-17T08:08:59.731Z,1.55
2023-03-17T08:11:29.240Z,1.73
2023-03-17T08:13:56.137Z,0.90
2023-03-17T08:16:23.216Z,1.60
2023-03-17T08:18:50.372Z,1.20
2023-03-17T08:21:17.737Z,1.30
2023-03-17T08:23:44.632Z,1.23
2023-03-17T08:26:11.396Z,1.38
2023-03-17T08:28:38.293Z,1.50
2023-03-17T08:31:14.410Z,1.30
2023-03-17T08:33:42.551Z,1.40
2023-03-17T08:36:11.320Z,2.40
2023-03-17T08:38:39.611Z,1.60
2023-03-17T08:41:09.115Z,1.40
2023-03-17T08:43:37.421Z,1.10
2023-03-17T08:49:03.316Z,1.70
2023-03-17T08:52:02.935Z,1.35
2023-03-17T08:54:29.640Z,1.20
2023-03-17T08:56:57.641Z,2.08
2023-03-17T08:59:24.233Z,3.03
2023-03-17T09:03:28.630Z,1.43
2023-03-17T09:06:33.392Z,1.40
2023-03-17T09:09:00.461Z,1.38
2023-03-17T09:14:24.917Z,1.65
2023-03-17T09:16:52.279Z,1.80
2023-03-17T09:19:26.184Z,2.30
2023-03-17T09:21:58.954Z,1.60
2023-03-17T09:24:29.263Z,2.00
2023-03-17T09:27:00.103Z,2.15
2023-03-17T09:29:27.304Z,1.93
2023-03-17T09:31:57.020Z,2.50
2023-03-17T09:34:25.179Z,2.22
2023-03-17T09:36:53.991Z,1.67
2023-03-17T09:39:24.163Z,2.30
2023-03-17T09:42:06.717Z,1.33
2023-03-17T09:44:58.081Z,2.15
2023-03-17T09:47:43.056Z,1.38
2023-03-17T09:50:15.972Z,3.70
2023-03-17T09:52:43.238Z,1.95
2023-03-17T09:55:25.270Z,1.80
2023-03-17T09:57:54.356Z,1.70
2023-03-17T10:00:26.765Z,2.22
2023-03-17T10:02:55.040Z,2.30
2023-03-17T10:05:31.548Z,2.55
2023-03-17T10:08:30.063Z,1.87
2023-03-17T10:11:35.729Z,3.85
2023-03-17T10:14:05.361Z,2.90
2023-03-17T10:16:50.961Z,2.42
2023-03-17T10:19:32.666Z,2.92
2023-03-17T10:22:22.046Z,1.97
2023-03-17T10:24:54.892Z,1.88
2023-03-17T10:27:21.882Z,3.20
2023-03-17T10:29:48.869Z,2.40
2023-03-17T10:32:16.120Z,2.72
2023-03-17T10:34:43.851Z,1.80
2023-03-17T10:37:23.346Z,2.85
2023-03-17T10:39:56.259Z,2.47
2023-03-17T10:42:30.280Z,2.13
2023-03-17T10:45:01.979Z,3.42
2023-03-17T10:47:38.429Z,2.47
2023-03-17T10:50:25.389Z,2.75
2023-03-17T10:53:00.755Z,2.30
2023-03-17T10:58:43.556Z,2.20
2023-03-17T11:01:20.200Z,3.60
2023-03-17T11:03:47.712Z,3.08
2023-03-17T11:06:19.376Z,1.75
2023-03-17T11:08:53.756Z,2.55
2023-03-17T11:11:26.310Z,2.40
2023-03-17T11:14:16.990Z,1.70
2023-03-17T11:16:57.595Z,1.58
2023-03-17T11:19:43.590Z,2.05
2023-03-17T11:22:15.120Z,2.05
2023-03-17T11:25:06.429Z,2.15
2023-03-17T11:27:36.139Z,1.80
2023-03-17T11:30:28.159Z,1.80
2023-03-17T11:33:11.162Z,3.10
2023-03-17T11:36:10.848Z,2.38
2023-03-17T11:39:00.593Z,1.92
2023-03-17T11:41:58.450Z,1.40
2023-03-17T11:44:56.795Z,1.85
2023-03-17T11:47:51.374Z,2.30
2023-03-17T11:53:57.812Z,1.48
2023-03-17T11:56:37.082Z,2.00
2023-03-17T11:59:11.973Z,1.58
2023-03-17T12:04:58.670Z,2.88
2023-03-17T12:07:31.609Z,2.72
2023-03-17T12:10:12.658Z,2.90
2023-03-17T12:12:47.405Z,2.88
2023-03-17T12:15:29.792Z,2.88
2023-03-17T12:18:04.413Z,1.55
2023-03-17T12:23:52.861Z,2.30
2023-03-17T12:26:41.440Z,2.45
2023-03-17T12:29:19.318Z,2.40
2023-03-17T12:31:52.555Z,2.45
2023-03-17T12:34:28.694Z,2.40
2023-03-17T12:36:55.738Z,2.40
2023-03-17T12:39:33.631Z,2.17
2023-03-17T12:42:22.849Z,6.05
2023-03-17T12:45:27.531Z,2.50
2023-03-17T12:48:21.956Z,3.28
2023-03-17T12:51:17.642Z,3.07
2023-03-17T12:53:49.747Z,2.70
2023-03-17T12:56:30.468Z,2.83
2023-03-17T12:59:04.860Z,3.25
2023-03-17T13:01:38.970Z,2.85
2023-03-17T13:04:18.195Z,3.20
2023-03-17T13:06:48.302Z,6.43
2023-03-17T13:09:33.196Z,4.40
2023-03-17T13:12:01.848Z,3.50
2023-03-17T13:14:45.877Z,3.58
2023-03-17T13:17:25.928Z,3.40
2023-03-17T13:20:15.112Z,3.28
2023-03-17T13:23:10.357Z,3.15
2023-03-17T13:25:42.969Z,2.97
2023-03-17T13:28:18.302Z,3.22
2023-03-17T13:30:59.743Z,3.00
2023-03-17T13:33:32.910Z,4.05
2023-03-17T13:36:26.677Z,3.13
2023-03-17T13:39:18.845Z,2.60
2023-03-17T13:42:05.553Z,2.80
2023-03-17T13:45:06.565Z,3.03
2023-03-17T13:47:36.165Z,2.60
2023-03-17T13:50:16.327Z,2.53
2023-03-17T13:52:47.340Z,2.83
2023-03-17T13:55:23.419Z,3.15
2023-03-17T13:58:17.970Z,3.00
2023-03-17T14:00:53.424Z,3.13
2023-03-17T14:03:34.166Z,2.92
2023-03-17T14:06:04.870Z,3.20
2023-03-17T14:08:36.394Z,2.97
2023-03-17T14:20:53.312Z,2.20
2023-03-17T14:23:21.426Z,2.35
2023-03-17T14:25:49.330Z,2.00
2023-03-17T14:28:17.831Z,3.13
2023-03-17T14:30:55.636Z,2.88
2023-03-17T14:33:41.277Z,3.20
2023-03-17T14:36:14.253Z,3.22
2023-03-17T14:38:49.268Z,4.13
2023-03-17T14:41:27.531Z,2.85
2023-03-17T14:43:58.520Z,2.85
2023-03-17T14:46:27.585Z,3.33
2023-03-17T14:49:00.962Z,3.50
2023-03-17T14:51:32.775Z,4.00
2023-03-17T14:54:01.330Z,3.03
2023-03-17T14:56:41.028Z,3.20
2023-03-17T14:59:16.060Z,2.83
2023-03-17T15:01:47.553Z,2.83
2023-03-17T15:04:25.106Z,4.57
2023-03-17T15:06:59.438Z,2.90
2023-03-17T15:09:32.034Z,2.65
2023-03-17T15:12:05.194Z,2.65
2023-03-17T15:14:34.193Z,3.75
2023-03-17T15:17:06.481Z,3.17
2023-03-17T15:19:43.504Z,3.42
2023-03-17T15:22:29.746Z,3.08
2023-03-17T15:25:03.788Z,3.15
2023-03-17T15:27:31.765Z,2.72
2023-03-17T15:29:58.697Z,3.13
2023-03-17T15:32:26.930Z,2.95
2023-03-17T15:34:57.088Z,3.50
2023-03-17T15:37:26.786Z,2.88
2023-03-17T15:39:55.201Z,3.08
2023-03-17T15:42:26.572Z,3.10
2023-03-17T15:44:53.748Z,3.30
2023-03-17T15:47:22.828Z,3.67
2023-03-17T15:49:51.172Z,3.25
2023-03-17T15:52:26.837Z,3.38
2023-03-17T15:54:58.215Z,2.90
2023-03-17T15:57:26.319Z,3.13
2023-03-17T15:59:53.281Z,3.42
2023-03-17T16:05:21.200Z,3.38
2023-03-17T16:07:48.650Z,3.03
2023-03-17T16:10:18.466Z,2.88
2023-03-17T16:12:45.279Z,3.58
2023-03-17T16:15:23.005Z,2.92
2023-03-17T16:17:54.380Z,2.85
2023-03-17T16:20:27.498Z,3.10
2023-03-17T16:22:58.651Z,3.05
2023-03-17T16:25:29.391Z,3.10
2023-03-17T16:27:58.020Z,3.15
2023-03-17T16:30:27.351Z,2.92
2023-03-17T16:32:55.166Z,3.47
2023-03-17T16:35:25.646Z,3.20
2023-03-17T16:37:54.274Z,3.50
2023-03-17T16:43:30.065Z,3.30
2023-03-17T16:46:02.568Z,3.73
2023-03-17T16:48:29.401Z,3.70
2023-03-17T16:53:51.458Z,3.88
2023-03-17T16:56:21.412Z,3.95
2023-03-17T16:58:49.291Z,4.27
2023-03-17T17:01:19.532Z,4.40
2023-03-17T17:03:46.825Z,4.25
2023-03-17T17:06:19.909Z,4.85
2023-03-17T17:08:48.223Z,4.45
2023-03-17T17:14:10.770Z,4.82
2023-03-17T17:16:40.020Z,4.60
2023-03-17T17:19:14.591Z,4.00
2023-03-17T17:21:41.216Z,4.80
2023-03-17T17:24:11.413Z,4.00
2023-03-17T17:26:38.966Z,5.03
2023-03-17T17:29:05.894Z,4.50
2023-03-17T17:31:32.450Z,5.18
2023-03-17T17:33:59.415Z,4.38
2023-03-17T17:36:26.839Z,4.90
2023-03-17T17:38:53.535Z,4.90
2023-03-17T17:41:22.049Z,5.10
2023-03-17T17:43:50.091Z,6.45
2023-03-17T17:46:22.443Z,5.85
2023-03-17T17:48:49.711Z,5.40
2023-03-17T17:51:16.477Z,5.50
2023-03-17T17:53:43.370Z,5.70
2023-03-17T17:56:17.860Z,5.90
2023-03-17T17:58:45.347Z,5.18
2023-03-17T18:01:14.010Z,6.30
2023-03-17T18:03:42.792Z,7.15
2023-03-17T18:06:09.901Z,9.68
2023-03-17T18:08:36.906Z,7.70
2023-03-17T18:11:03.650Z,6.78
2023-03-17T18:13:30.445Z,6.53
2023-03-17T18:15:57.303Z,7.13
2023-03-17T18:18:23.931Z,7.20
2023-03-17T18:20:50.983Z,6.75
2023-03-17T18:23:17.805Z,7.60
2023-03-17T18:25:44.311Z,7.13
2023-03-17T18:28:11.651Z,6.25
2023-03-17T18:30:40.916Z,6.65
2023-03-17T18:33:15.142Z,6.53
2023-03-17T18:35:43.751Z,5.90
2023-03-17T18:38:10.282Z,7.80
2023-03-17T18:40:37.570Z,6.78
2023-03-17T18:43:04.963Z,7.40
2023-03-17T18:45:31.601Z,6.72
2023-03-17T18:47:58.330Z,7.65
2023-03-17T18:50:24.984Z,8.20
2023-03-17T18:52:51.643Z,8.23
2023-03-17T18:55:18.516Z,6.80
2023-03-17T18:57:46.574Z,8.25
2023-03-17T19:00:16.521Z,7.50
2023-03-17T19:02:43.142Z,7.83
2023-03-17T19:05:10.550Z,6.90
2023-03-17T19:07:40.135Z,6.55
2023-03-17T19:10:08.073Z,8.13
2023-03-17T19:12:34.682Z,6.28
2023-03-17T19:15:01.912Z,6.90
2023-03-17T19:17:28.583Z,6.35
2023-03-17T19:19:55.322Z,6.72
2023-03-17T19:22:22.100Z,6.57
2023-03-17T19:24:50.296Z,6.60
2023-03-17T19:27:17.908Z,7.43
2023-03-17T19:29:45.165Z,6.25
2023-03-17T19:32:12.052Z,5.95
2023-03-17T19:34:38.669Z,5.53
2023-03-17T19:37:05.701Z,5.57
2023-03-17T19:39:33.613Z,4.77
2023-03-17T19:42:00.210Z,5.38
2023-03-17T19:44:27.467Z,4.40
2023-03-17T19:46:54.022Z,4.10
2023-03-17T19:49:21.293Z,3.40
2023-03-17T19:51:49.335Z,3.73
2023-03-17T19:54:16.545Z,3.30
2023-03-17T19:56:43.176Z,3.55
2023-03-17T19:59:09.728Z,3.38
2023-03-17T20:01:38.052Z,3.08
2023-03-17T20:04:06.987Z,3.20
2023-03-17T20:06:34.742Z,3.30
2023-03-17T20:09:04.191Z,4.05
2023-03-17T20:11:34.040Z,2.70
2023-03-17T20:14:04.726Z,3.03
2023-03-17T20:16:33.819Z,4.67
2023-03-17T20:19:01.257Z,3.83
2023-03-17T20:21:27.930Z,5.00
2023-03-17T20:23:54.776Z,3.95
2023-03-17T20:26:21.394Z,4.03
2023-03-17T20:28:47.977Z,4.10
2023-03-17T20:31:14.696Z,4.88
2023-03-17T20:33:42.219Z,3.97
2023-03-17T20:36:09.383Z,3.95
2023-03-17T20:38:39.045Z,3.78
2023-03-17T20:41:07.679Z,3.90
2023-03-17T20:43:36.490Z,2.55
2023-03-17T20:46:09.289Z,3.88
2023-03-17T20:48:37.350Z,2.85
2023-03-17T20:51:06.422Z,4.13
2023-03-17T20:53:34.375Z,3.80
2023-03-17T20:56:01.017Z,3.17
2023-03-17T20:58:27.811Z,4.22
2023-03-17T21:00:55.392Z,3.83
2023-03-17T21:03:22.264Z,4.07
2023-03-17T21:05:49.128Z,4.23
2023-03-17T21:08:16.612Z,3.78
2023-03-17T21:10:43.198Z,3.83
2023-03-17T21:13:10.218Z,4.63
2023-03-17T21:15:36.782Z,3.55
2023-03-17T21:18:03.734Z,4.63
2023-03-17T21:20:30.687Z,4.00
2023-03-17T21:22:57.958Z,5.20
2023-03-17T21:25:24.815Z,4.60
2023-03-17T21:27:52.261Z,3.63
2023-03-17T21:30:19.217Z,3.87
2023-03-17T21:32:45.900Z,4.55
2023-03-17T21:35:12.786Z,4.00
2023-03-17T21:37:39.379Z,4.30
2023-03-17T21:40:07.046Z,4.72
2023-03-17T21:42:34.262Z,4.40
2023-03-17T21:45:01.040Z,5.32
2023-03-17T21:47:29.380Z,5.25
2023-03-17T21:49:56.631Z,4.60
2023-03-17T21:52:23.505Z,5.35
2023-03-17T21:54:51.027Z,4.07
2023-03-17T21:57:18.247Z,4.30
2023-03-17T21:59:45.685Z,4.63
2023-03-17T22:02:12.805Z,6.20
2023-03-17T22:04:41.652Z,6.30
2023-03-17T22:07:08.903Z,10.83
2023-03-17T22:09:36.127Z,5.50
2023-03-17T22:12:03.769Z,4.80
2023-03-17T22:14:31.351Z,4.97
2023-03-17T22:16:57.903Z,4.72
2023-03-17T22:19:24.865Z,7.40
2023-03-17T22:21:51.813Z,6.38
2023-03-17T22:24:19.115Z,5.03
2023-03-17T22:26:46.621Z,5.43
2023-03-17T22:29:14.039Z,5.20
2023-03-17T22:31:41.313Z,4.80
2023-03-17T22:34:09.916Z,5.38
2023-03-17T22:36:37.378Z,4.78
2023-03-17T22:39:06.909Z,4.32
2023-03-17T22:41:33.867Z,6.22
2023-03-17T22:44:00.566Z,4.90
2023-03-17T22:46:27.596Z,4.70
2023-03-17T22:48:54.275Z,4.50
2023-03-17T22:51:23.904Z,4.20
2023-03-17T22:53:51.862Z,5.38
2023-03-17T22:56:19.734Z,3.67
2023-03-17T22:58:47.407Z,3.95
2023-03-17T23:01:16.316Z,4.78
2023-03-17T23:03:43.935Z,3.95
2023-03-17T23:06:11.411Z,4.22
2023-03-17T23:08:39.669Z,4.57
2023-03-17T23:11:11.839Z,4.20
2023-03-17T23:13:41.646Z,4.47
2023-03-17T23:16:09.497Z,4.28
2023-03-17T23:18:36.104Z,4.85
2023-03-17T23:21:04.269Z,5.00
2023-03-17T23:23:31.494Z,4.38
2023-03-17T23:25:58.136Z,4.68
2023-03-17T23:28:25.036Z,5.05
2023-03-17T23:30:52.340Z,4.90
2023-03-17T23:33:21.602Z,5.53
2023-03-17T23:35:50.376Z,5.55
2023-03-17T23:38:21.915Z,5.93
2023-03-17T23:40:49.715Z,5.75
2023-03-17T23:43:16.533Z,5.78
2023-03-17T23:45:43.682Z,6.10
2023-03-17T23:48:11.153Z,5.80
2023-03-17T23:50:41.010Z,5.95
2023-03-17T23:53:07.667Z,6.13
2023-03-17T23:55:35.198Z,5.78
2023-03-17T23:58:02.084Z,5.00
